Time;durP1;ratioP1;P1;durP2;ratioP2;P2;SDS_P1;SDS_P2;PMS_P1;PMS_P2;Temp;Humidity;BMP_temperature;BMP_pressure;BME280_temperature;BME280_humidity;BME280_pressure;Samples;Min_cycle;Max_cycle;Signal;HPM_P1;HPM_P2
2024/04/06 00:01:16;;;;;;;4.60;1.35;;;12.70;99.90;;;;;;5041799;28;20041;-72
2024/04/06 00:03:45;;;;;;;7.03;1.25;;;12.70;99.90;;;;;;5034501;28;20033;-71
2024/04/06 00:06:10;;;;;;;7.25;1.15;;;12.70;99.90;;;;;;5039363;28;20036;-71
2024/04/06 00:08:36;;;;;;;4.45;0.90;;;12.70;99.90;;;;;;5046808;28;20041;-73
2024/04/06 00:11:01;;;;;;;4.82;0.90;;;12.70;99.90;;;;;;5025670;28;20083;-71
2024/04/06 00:13:27;;;;;;;7.40;1.00;;;12.70;99.90;;;;;;5041150;28;20053;-72
2024/04/06 00:15:53;;;;;;;3.30;1.08;;;12.70;99.90;;;;;;5043400;28;20514;-73
2024/04/06 00:18:18;;;;;;;8.05;1.30;;;12.70;99.90;;;;;;5042075;28;20033;-69
2024/04/06 00:20:44;;;;;;;5.05;0.93;;;12.70;99.90;;;;;;5033833;28;20044;-72
2024/04/06 00:23:10;;;;;;;11.80;2.15;;;12.80;99.90;;;;;;5040408;28;20037;-72
2024/04/06 00:25:35;;;;;;;5.38;1.58;;;12.80;99.90;;;;;;5045784;28;20041;-72
2024/04/06 00:28:01;;;;;;;3.60;1.33;;;12.80;99.90;;;;;;5044124;28;20130;-71
2024/04/06 00:30:27;;;;;;;5.22;1.92;;;12.80;99.90;;;;;;5045155;28;20504;-73
2024/04/06 00:32:52;;;;;;;7.72;1.33;;;12.80;99.90;;;;;;5041767;28;20047;-73
2024/04/06 00:35:18;;;;;;;7.03;1.63;;;12.90;99.90;;;;;;5046050;28;20039;-74
2024/04/06 00:37:44;;;;;;;4.47;1.17;;;12.90;99.90;;;;;;5043376;28;20045;-73
2024/04/06 00:40:10;;;;;;;8.38;1.08;;;12.90;99.90;;;;;;5039596;28;20467;-72
2024/04/06 00:42:36;;;;;;;7.10;1.45;;;12.90;99.90;;;;;;5043210;28;20112;-72
2024/04/06 00:45:02;;;;;;;4.28;1.17;;;13.00;99.90;;;;;;5045127;28;20113;-72
2024/04/06 00:47:28;;;;;;;9.18;1.58;;;12.90;99.90;;;;;;5043918;28;20738;-73
2024/04/06 00:49:54;;;;;;;8.35;1.55;;;12.90;99.90;;;;;;5043904;28;20037;-72
2024/04/06 00:52:19;;;;;;;2.50;1.20;;;13.00;99.90;;;;;;5045072;28;20033;-70
2024/04/06 00:54:45;;;;;;;6.13;1.35;;;13.00;99.90;;;;;;5042631;28;20049;-71
2024/04/06 00:57:12;;;;;;;3.85;1.05;;;13.00;99.90;;;;;;5037908;28;20679;-72
2024/04/06 00:59:38;;;;;;;4.22;1.23;;;13.00;99.90;;;;;;5045437;28;20037;-72
2024/04/06 01:02:05;;;;;;;5.57;1.45;;;13.00;99.90;;;;;;5042618;28;20132;-72
2024/04/06 01:04:31;;;;;;;5.97;1.40;;;13.00;99.90;;;;;;5045514;28;20033;-70
2024/04/06 01:06:56;;;;;;;3.78;1.42;;;13.10;99.90;;;;;;5039060;28;20116;-73
2024/04/06 01:09:23;;;;;;;4.85;1.58;;;13.10;99.90;;;;;;5045861;28;20120;-71
2024/04/06 01:11:49;;;;;;;5.97;1.85;;;13.10;99.90;;;;;;5043586;28;20086;-73
2024/04/06 01:14:16;;;;;;;4.55;1.73;;;13.10;99.90;;;;;;5045728;28;20458;-73
2024/04/06 01:16:43;;;;;;;6.93;2.22;;;13.10;99.90;;;;;;5041022;28;20486;-71
2024/04/06 01:19:09;;;;;;;4.22;1.50;;;13.20;99.90;;;;;;5038323;28;20044;-72
2024/04/06 01:21:34;;;;;;;7.15;3.25;;;13.20;99.90;;;;;;5044939;28;20037;-72
2024/04/06 01:24:28;;;;;;;5.57;1.48;;;13.20;99.90;;;;;;5035891;28;20052;-70
2024/04/06 01:26:54;;;;;;;5.40;1.70;;;13.20;99.90;;;;;;5040760;28;20061;-72
2024/04/06 01:29:21;;;;;;;5.20;1.83;;;13.30;99.90;;;;;;5041063;28;20051;-69
2024/04/06 01:31:47;;;;;;;9.88;2.75;;;13.30;99.90;;;;;;5043807;28;20065;-72
2024/04/06 01:34:13;;;;;;;8.40;2.05;;;13.30;99.90;;;;;;5040372;28;20051;-72
2024/04/06 01:36:40;;;;;;;4.20;1.95;;;13.30;99.90;;;;;;5044466;28;20061;-72
2024/04/06 01:39:07;;;;;;;4.25;1.60;;;13.30;99.90;;;;;;5024748;28;20033;-71
2024/04/06 01:41:34;;;;;;;3.72;1.90;;;13.30;99.90;;;;;;5024951;28;20048;-72
2024/04/06 01:44:00;;;;;;;7.15;2.30;;;13.30;99.90;;;;;;5022629;28;20033;-71
2024/04/06 01:46:25;;;;;;;6.28;1.77;;;13.30;99.90;;;;;;5027966;28;20104;-72
2024/04/06 01:48:51;;;;;;;6.47;2.10;;;13.40;99.90;;;;;;5045154;28;20092;-72
2024/04/06 01:51:16;;;;;;;6.55;2.17;;;13.40;99.90;;;;;;5047035;28;20401;-71
2024/04/06 01:53:42;;;;;;;5.15;1.92;;;13.40;99.90;;;;;;5047068;28;20120;-70
2024/04/06 01:56:07;;;;;;;6.40;1.92;;;13.50;99.90;;;;;;5046772;28;20041;-72
2024/04/06 01:58:33;;;;;;;3.85;1.90;;;13.40;99.90;;;;;;5047084;28;20554;-70
2024/04/06 02:00:58;;;;;;;6.07;2.45;;;13.40;99.90;;;;;;5044567;28;20037;-75
2024/04/06 02:03:24;;;;;;;4.22;1.73;;;13.40;99.90;;;;;;5042647;28;20493;-71
2024/04/06 02:05:50;;;;;;;6.80;2.13;;;13.30;99.90;;;;;;5046080;28;20033;-72
2024/04/06 02:08:16;;;;;;;6.55;2.00;;;13.40;99.90;;;;;;5028364;28;20029;-72
2024/04/06 02:10:42;;;;;;;4.45;1.50;;;13.30;99.90;;;;;;5025079;28;20037;-71
2024/04/06 02:13:08;;;;;;;3.83;1.52;;;13.30;99.90;;;;;;5028034;28;20384;-72
2024/04/06 02:15:35;;;;;;;5.63;1.70;;;13.30;99.90;;;;;;5028262;28;20044;-70
2024/04/06 02:18:01;;;;;;;11.18;2.35;;;13.30;99.90;;;;;;5027768;28;20128;-69
2024/04/06 02:20:26;;;;;;;2.10;1.23;;;13.30;99.90;;;;;;5024700;28;20031;-71
2024/04/06 02:22:52;;;;;;;4.45;1.48;;;13.20;99.90;;;;;;5026365;28;20040;-71
2024/04/06 02:25:18;;;;;;;5.57;1.33;;;13.20;99.90;;;;;;5027605;28;20095;-71
2024/04/06 02:27:43;;;;;;;5.18;1.17;;;13.20;99.90;;;;;;5029955;28;20059;-71
2024/04/06 02:30:10;;;;;;;2.63;1.58;;;13.20;99.90;;;;;;5031043;28;20034;-72
2024/04/06 02:32:36;;;;;;;5.57;1.40;;;13.20;99.90;;;;;;5044553;28;20625;-71
2024/04/06 02:35:02;;;;;;;4.45;1.20;;;13.20;99.90;;;;;;5047863;28;20047;-71
2024/04/06 02:37:27;;;;;;;4.15;1.70;;;13.30;99.90;;;;;;5043479;28;20037;-72
2024/04/06 02:39:53;;;;;;;4.00;1.85;;;13.30;99.90;;;;;;5044815;28;20090;-71
2024/04/06 02:42:18;;;;;;;5.13;1.42;;;13.30;99.90;;;;;;5044113;28;20108;-72
2024/04/06 02:44:44;;;;;;;3.78;1.60;;;13.30;99.90;;;;;;5038485;28;20037;-69
2024/04/06 02:47:09;;;;;;;4.55;1.65;;;13.30;99.90;;;;;;5027161;28;20048;-73
2024/04/06 02:49:35;;;;;;;6.20;1.58;;;13.40;99.90;;;;;;5026057;28;20422;-71
2024/04/06 02:52:01;;;;;;;6.47;2.22;;;13.30;99.90;;;;;;5016863;28;20054;-71
2024/04/06 02:54:26;;;;;;;3.22;1.65;;;13.40;99.90;;;;;;5034743;28;20036;-71
2024/04/06 02:56:52;;;;;;;6.63;1.25;;;13.30;99.90;;;;;;5022375;28;20029;-73
2024/04/06 02:59:18;;;;;;;4.30;1.42;;;13.30;99.90;;;;;;5032935;28;20399;-71
2024/04/06 03:01:43;;;;;;;2.85;1.27;;;13.30;99.90;;;;;;5023645;28;20037;-70
2024/04/06 03:04:09;;;;;;;7.05;1.20;;;13.40;99.90;;;;;;5018701;28;20220;-73
2024/04/06 03:06:34;;;;;;;2.88;1.00;;;13.40;99.90;;;;;;5032340;28;20099;-71
2024/04/06 03:09:00;;;;;;;4.18;1.50;;;13.40;99.90;;;;;;5022598;28;20168;-72
2024/04/06 03:11:26;;;;;;;7.97;1.38;;;13.40;99.90;;;;;;5028741;28;20033;-73
2024/04/06 03:13:51;;;;;;;1.60;0.95;;;13.40;99.90;;;;;;5024513;28;20474;-70
2024/04/06 03:16:17;;;;;;;4.07;1.00;;;13.40;99.90;;;;;;5028215;28;20397;-71
2024/04/06 03:18:44;;;;;;;2.95;0.93;;;13.40;99.90;;;;;;5042073;28;20032;-68
2024/04/06 03:21:10;;;;;;;5.20;0.70;;;13.30;99.90;;;;;;5046708;28;20456;-72
2024/04/06 03:23:36;;;;;;;3.53;1.27;;;13.40;99.90;;;;;;5043735;28;20136;-71
2024/04/06 03:26:01;;;;;;;2.75;1.05;;;13.30;99.90;;;;;;5045408;28;20060;-70
2024/04/06 03:28:27;;;;;;;4.00;1.90;;;13.30;99.90;;;;;;5047852;28;20075;-72
2024/04/06 03:30:52;;;;;;;3.33;0.88;;;13.20;99.90;;;;;;5047311;28;20079;-73
2024/04/06 03:33:18;;;;;;;2.65;1.15;;;13.20;99.90;;;;;;5039767;28;20490;-71
2024/04/06 03:35:44;;;;;;;4.55;1.50;;;13.20;99.90;;;;;;5037413;28;20509;-69
2024/04/06 03:38:09;;;;;;;2.45;1.10;;;13.10;99.90;;;;;;5045130;28;20037;-72
2024/04/06 03:40:35;;;;;;;3.25;1.10;;;13.10;99.90;;;;;;5034078;28;20052;-71
2024/04/06 03:43:01;;;;;;;3.10;1.20;;;13.10;99.90;;;;;;5023981;28;20460;-71
2024/04/06 03:45:26;;;;;;;1.85;1.00;;;13.10;99.90;;;;;;5041618;28;20072;-71
2024/04/06 03:47:53;;;;;;;2.67;1.00;;;13.10;99.90;;;;;;5030346;28;20405;-71
2024/04/06 03:50:20;;;;;;;3.88;1.00;;;13.10;99.90;;;;;;5022829;28;20426;-75
2024/04/06 03:52:46;;;;;;;2.40;1.08;;;13.10;99.90;;;;;;5029455;28;20448;-69
2024/04/06 03:55:12;;;;;;;5.57;1.20;;;13.10;99.90;;;;;;5040869;28;20058;-69
2024/04/06 03:57:38;;;;;;;3.35;0.90;;;13.10;99.90;;;;;;5040961;28;20406;-71
2024/04/06 04:00:09;;;;;;;7.05;1.15;;;13.10;99.90;;;;;;5033296;28;20045;-72
2024/04/06 04:02:37;;;;;;;4.53;1.38;;;13.10;99.90;;;;;;5046169;28;20495;-73
2024/04/06 04:05:03;;;;;;;1.98;1.27;;;13.10;99.90;;;;;;5044974;28;20106;-71
2024/04/06 04:07:30;;;;;;;5.13;1.25;;;13.10;99.90;;;;;;5046864;28;20448;-72
2024/04/06 04:09:57;;;;;;;3.10;1.00;;;13.10;99.90;;;;;;5045913;28;20413;-71
2024/04/06 04:12:23;;;;;;;4.47;1.05;;;13.20;99.90;;;;;;5040999;28;20120;-70
2024/04/06 04:14:49;;;;;;;3.30;0.70;;;13.20;99.90;;;;;;5046371;28;20103;-72
2024/04/06 04:17:14;;;;;;;5.50;1.60;;;13.20;99.90;;;;;;5045257;28;20037;-70
2024/04/06 04:19:40;;;;;;;4.78;1.05;;;13.20;99.90;;;;;;5044713;28;20051;-68
2024/04/06 04:22:06;;;;;;;2.38;1.13;;;13.30;99.90;;;;;;5046998;28;20041;-71
2024/04/06 04:24:31;;;;;;;5.68;1.60;;;13.30;99.90;;;;;;5046026;28;20466;-72
2024/04/06 04:26:57;;;;;;;2.15;1.15;;;13.20;99.90;;;;;;5045020;28;20040;-71
2024/04/06 04:29:23;;;;;;;2.45;1.13;;;13.10;99.90;;;;;;5039844;28;20490;-70
2024/04/06 04:31:48;;;;;;;2.58;0.65;;;13.10;99.90;;;;;;5039324;28;20063;-71
2024/04/06 04:34:14;;;;;;;5.65;1.10;;;13.10;99.90;;;;;;5032226;28;20116;-70
2024/04/06 04:36:39;;;;;;;4.32;1.08;;;13.00;99.90;;;;;;5045924;28;20060;-71
2024/04/06 04:39:05;;;;;;;4.22;1.10;;;13.00;99.90;;;;;;5036709;28;20543;-74
2024/04/06 04:41:31;;;;;;;3.78;1.50;;;13.00;99.90;;;;;;5043742;28;20095;-72
2024/04/06 04:43:56;;;;;;;4.40;1.20;;;13.10;99.90;;;;;;5043282;28;20036;-71
2024/04/06 04:46:23;;;;;;;4.00;1.15;;;13.10;99.90;;;;;;5039120;28;20045;-71
2024/04/06 04:48:57;;;;;;;3.00;1.50;;;13.10;99.90;;;;;;5033906;28;20029;-70
2024/04/06 04:51:23;;;;;;;5.43;1.23;;;13.10;99.90;;;;;;5031038;28;20471;-72
2024/04/06 04:53:53;;;;;;;4.80;1.10;;;13.10;99.90;;;;;;5040820;28;20583;-72
2024/04/06 04:56:19;;;;;;;4.87;1.37;;;13.10;99.90;;;;;;5023502;28;20036;-70
2024/04/06 04:58:45;;;;;;;2.72;1.10;;;13.10;99.90;;;;;;5021147;28;20280;-72
2024/04/06 05:01:11;;;;;;;3.22;0.98;;;13.10;99.90;;;;;;5033151;28;20127;-70
2024/04/06 05:03:37;;;;;;;2.60;0.90;;;13.10;99.90;;;;;;5037500;28;20116;-71
2024/04/06 05:06:03;;;;;;;4.97;1.20;;;13.10;99.90;;;;;;5030444;28;20094;-70
2024/04/06 05:08:29;;;;;;;2.10;0.90;;;13.00;99.90;;;;;;5045086;28;20574;-71
2024/04/06 05:10:55;;;;;;;4.35;1.73;;;13.00;99.90;;;;;;5046276;28;20111;-71
2024/04/06 05:13:21;;;;;;;2.25;0.90;;;13.00;99.90;;;;;;5044942;28;20063;-72
2024/04/06 05:15:52;;;;;;;4.75;1.13;;;13.00;99.90;;;;;;5044116;28;20064;-72
2024/04/06 05:18:22;;;;;;;4.38;1.27;;;13.00;99.90;;;;;;5040511;28;20048;-70
2024/04/06 05:20:51;;;;;;;8.05;1.23;;;13.10;99.90;;;;;;5037375;28;20052;-73
2024/04/06 05:23:17;;;;;;;5.45;1.50;;;13.00;99.90;;;;;;5041013;28;20032;-73
2024/04/06 05:25:45;;;;;;;2.47;1.25;;;13.10;99.90;;;;;;5041370;28;20040;-73
2024/04/06 05:28:11;;;;;;;1.75;0.88;;;13.10;99.90;;;;;;5045289;28;20106;-71
2024/04/06 05:30:36;;;;;;;5.40;1.92;;;13.20;99.90;;;;;;5046360;28;20033;-73
2024/04/06 05:33:02;;;;;;;2.33;1.10;;;13.20;99.90;;;;;;5043270;28;20436;-74
2024/04/06 05:35:27;;;;;;;4.55;1.35;;;13.10;99.90;;;;;;5045899;28;20036;-72
2024/04/06 05:37:53;;;;;;;4.25;1.45;;;13.20;99.90;;;;;;5040702;28;20414;-70
2024/04/06 05:40:19;;;;;;;2.58;1.00;;;13.20;99.90;;;;;;5038115;28;20156;-70
2024/04/06 05:42:45;;;;;;;4.93;1.45;;;13.20;99.90;;;;;;5040778;28;20044;-72
2024/04/06 05:45:11;;;;;;;4.00;1.38;;;13.20;99.90;;;;;;5044997;28;20132;-71
2024/04/06 05:47:37;;;;;;;4.38;1.65;;;13.30;99.90;;;;;;5041295;28;20120;-74
2024/04/06 05:50:02;;;;;;;3.78;1.23;;;13.30;99.90;;;;;;5044361;28;20040;-72
2024/04/06 05:52:28;;;;;;;2.20;0.98;;;13.40;99.90;;;;;;5042030;28;20060;-71
2024/04/06 05:54:59;;;;;;;1.80;0.90;;;13.50;99.90;;;;;;5044570;28;20505;-71
2024/04/06 05:57:25;;;;;;;3.10;1.10;;;13.50;99.90;;;;;;5041236;28;20098;-71
2024/04/06 05:59:50;;;;;;;5.28;1.38;;;13.60;99.90;;;;;;5039390;28;20052;-71
2024/04/06 06:02:16;;;;;;;4.45;1.23;;;13.70;99.90;;;;;;5040403;28;20065;-71
2024/04/06 06:04:42;;;;;;;4.13;0.90;;;13.80;99.90;;;;;;5043683;28;20037;-71
2024/04/06 06:07:07;;;;;;;2.95;0.98;;;13.80;99.90;;;;;;5037496;28;20029;-71
2024/04/06 06:09:33;;;;;;;3.08;1.33;;;13.90;99.90;;;;;;5035546;28;20033;-73
2024/04/06 06:11:59;;;;;;;4.03;1.45;;;14.30;99.90;;;;;;5020184;28;20084;-70
2024/04/06 06:14:24;;;;;;;3.55;1.15;;;14.80;99.90;;;;;;5039415;28;20458;-72
2024/04/06 06:16:50;;;;;;;2.53;0.90;;;15.50;99.90;;;;;;5036768;28;20040;-72
2024/04/06 06:19:15;;;;;;;2.40;0.80;;;15.90;99.90;;;;;;5040179;28;20112;-70
2024/04/06 06:21:41;;;;;;;2.58;0.80;;;16.10;99.90;;;;;;5042080;28;20037;-71
2024/04/06 06:24:06;;;;;;;4.45;0.82;;;16.50;99.90;;;;;;5039980;28;20060;-72
2024/04/06 06:26:32;;;;;;;2.25;0.68;;;16.90;99.90;;;;;;5039293;28;20086;-73
2024/04/06 06:28:58;;;;;;;6.25;1.27;;;17.30;99.90;;;;;;5033425;28;20033;-71
2024/04/06 06:31:23;;;;;;;2.00;0.73;;;17.80;99.90;;;;;;5039552;28;20048;-73
2024/04/06 06:33:49;;;;;;;3.03;0.65;;;17.80;99.90;;;;;;5041688;28;20119;-73
2024/04/06 06:36:15;;;;;;;1.58;0.80;;;18.00;99.90;;;;;;5042214;28;20033;-72
2024/04/06 06:38:41;;;;;;;3.53;0.70;;;17.90;99.90;;;;;;5048443;28;20025;-73
2024/04/06 06:41:07;;;;;;;1.98;0.63;;;18.10;99.90;;;;;;5017957;28;20461;-73
2024/04/06 06:43:32;;;;;;;1.58;0.50;;;18.70;99.90;;;;;;5043110;28;20037;-70
2024/04/06 06:45:58;;;;;;;3.63;0.70;;;19.40;99.90;;;;;;5040399;28;20034;-71
2024/04/06 06:48:24;;;;;;;1.90;0.75;;;19.90;99.90;;;;;;5042223;28;20052;-73
2024/04/06 06:50:49;;;;;;;3.25;0.30;;;20.30;99.90;;;;;;5038109;28;20041;-75
2024/04/06 06:53:15;;;;;;;2.33;0.50;;;20.50;99.90;;;;;;5035963;28;20094;-72
2024/04/06 06:55:40;;;;;;;2.72;0.70;;;20.20;99.90;;;;;;5046248;28;20375;-71
2024/04/06 06:58:06;;;;;;;1.55;0.50;;;19.80;99.90;;;;;;5037073;28;20065;-72
2024/04/06 07:00:31;;;;;;;3.03;0.65;;;19.40;99.90;;;;;;5034206;28;20043;-73
2024/04/06 07:02:58;;;;;;;3.15;0.88;;;19.10;99.90;;;;;;5038091;28;20049;-74
2024/04/06 07:05:23;;;;;;;1.50;0.50;;;18.70;99.90;;;;;;5038917;28;20507;-72
2024/04/06 07:07:54;;;;;;;3.72;1.23;;;18.50;99.90;;;;;;5045280;28;20044;-71
2024/04/06 07:10:19;;;;;;;1.23;0.63;;;18.40;99.90;;;;;;5043500;28;20040;-72
2024/04/06 07:12:45;;;;;;;1.67;0.95;;;18.20;99.90;;;;;;5044782;28;20029;-73
2024/04/06 07:15:11;;;;;;;2.90;0.50;;;18.10;99.90;;;;;;5044049;28;20714;-72
2024/04/06 07:17:36;;;;;;;6.05;1.25;;;17.90;99.90;;;;;;5034227;28;20044;-74
2024/04/06 07:20:02;;;;;;;4.20;0.90;;;17.90;99.90;;;;;;5010183;28;20414;-71
2024/04/06 07:22:28;;;;;;;3.53;0.85;;;17.90;99.90;;;;;;5039901;28;20044;-72
2024/04/06 07:24:54;;;;;;;5.82;0.88;;;17.90;99.90;;;;;;5039296;28;20029;-71
2024/04/06 07:27:20;;;;;;;3.10;1.67;;;17.90;99.90;;;;;;5042300;28;20124;-74
2024/04/06 07:29:47;;;;;;;1.85;0.73;;;18.00;99.90;;;;;;5040330;28;20099;-71
2024/04/06 07:32:12;;;;;;;2.85;0.70;;;18.00;99.90;;;;;;5045865;28;20049;-74
2024/04/06 07:34:38;;;;;;;2.13;0.82;;;18.00;99.90;;;;;;5042759;28;20090;-71
2024/04/06 07:37:04;;;;;;;4.28;0.95;;;18.00;99.90;;;;;;5031282;28;20098;-71
2024/04/06 07:39:30;;;;;;;3.85;1.40;;;18.00;99.90;;;;;;5039488;28;20045;-72
2024/04/06 07:41:56;;;;;;;3.28;1.17;;;18.00;99.90;;;;;;5042431;28;20035;-72
2024/04/06 07:44:21;;;;;;;2.22;0.85;;;18.00;99.90;;;;;;5041912;28;20045;-72
2024/04/06 07:46:47;;;;;;;2.53;0.80;;;18.10;99.90;;;;;;5044281;28;20035;-72
2024/04/06 07:49:13;;;;;;;1.95;1.08;;;18.10;99.90;;;;;;5044582;28;20036;-70
2024/04/06 07:51:41;;;;;;;3.63;0.90;;;18.20;99.90;;;;;;5044439;28;20036;-74
2024/04/06 07:54:07;;;;;;;2.85;1.05;;;18.30;99.90;;;;;;5019418;28;20530;-74
2024/04/06 07:56:33;;;;;;;1.63;0.50;;;18.40;99.90;;;;;;5014050;28;20037;-71
2024/04/06 07:58:59;;;;;;;3.63;0.60;;;18.50;99.90;;;;;;5023985;28;20034;-74
2024/04/06 08:01:25;;;;;;;2.63;0.75;;;18.50;99.90;;;;;;5022875;28;20034;-71
2024/04/06 08:03:50;;;;;;;1.35;0.52;;;18.50;99.90;;;;;;5020404;28;20057;-71
2024/04/06 08:06:19;;;;;;;3.38;0.93;;;18.60;99.90;;;;;;5022171;28;20033;-71
2024/04/06 08:08:45;;;;;;;1.30;0.68;;;18.60;99.90;;;;;;5023366;28;20052;-70
2024/04/06 08:11:11;;;;;;;1.30;0.50;;;18.70;99.90;;;;;;5023511;28;20550;-73
2024/04/06 08:13:37;;;;;;;5.53;0.60;;;18.70;99.90;;;;;;5023696;28;20425;-72
2024/04/06 08:16:03;;;;;;;3.30;1.15;;;18.90;99.90;;;;;;5024550;28;20025;-71
2024/04/06 08:18:29;;;;;;;2.38;0.63;;;18.90;99.90;;;;;;5022590;28;20049;-74
2024/04/06 08:20:54;;;;;;;2.63;0.52;;;19.00;99.90;;;;;;5024358;28;20033;-71
2024/04/06 08:23:20;;;;;;;1.55;0.40;;;19.10;99.90;;;;;;5016823;28;20042;-70
2024/04/06 08:25:48;;;;;;;5.63;0.52;;;19.20;99.90;;;;;;5024588;28;20529;-70
2024/04/06 08:28:13;;;;;;;2.00;0.40;;;19.30;99.90;;;;;;5024581;28;20037;-72
2024/04/06 08:30:39;;;;;;;2.30;0.50;;;19.50;99.90;;;;;;5025305;28;20032;-73
2024/04/06 08:33:08;;;;;;;1.42;0.50;;;19.60;99.90;;;;;;5025165;28;20107;-71
2024/04/06 08:35:37;;;;;;;2.65;0.63;;;19.70;99.90;;;;;;5019443;28;20572;-71
2024/04/06 08:38:07;;;;;;;6.57;0.60;;;19.70;99.90;;;;;;5020841;28;20515;-72
2024/04/06 08:40:39;;;;;;;3.53;0.60;;;19.80;99.90;;;;;;5020077;28;20041;-71
2024/04/06 08:43:11;;;;;;;2.53;0.55;;;19.80;99.90;;;;;;5022343;28;20037;-72
2024/04/06 08:45:37;;;;;;;2.03;0.40;;;19.80;99.90;;;;;;5021538;28;20034;-71
2024/04/06 08:48:03;;;;;;;3.45;0.52;;;19.80;99.90;;;;;;5023233;28;20038;-71
2024/04/06 08:50:30;;;;;;;4.43;0.80;;;19.90;99.90;;;;;;5022753;28;20667;-72
2024/04/06 08:52:56;;;;;;;3.97;0.70;;;20.00;99.90;;;;;;5023205;28;20057;-72
2024/04/06 08:55:21;;;;;;;3.17;0.60;;;20.10;99.90;;;;;;5025299;28;20077;-72
2024/04/06 08:57:48;;;;;;;0.85;0.20;;;20.10;99.90;;;;;;5024412;28;20426;-73
2024/04/06 09:00:16;;;;;;;4.15;0.70;;;20.20;99.90;;;;;;5018876;28;20037;-74
2024/04/06 09:02:42;;;;;;;2.47;0.57;;;20.20;99.90;;;;;;5021180;28;20406;-72
2024/04/06 09:05:08;;;;;;;3.67;0.55;;;20.30;99.90;;;;;;5019792;28;20042;-74
2024/04/06 09:07:34;;;;;;;1.55;0.60;;;20.30;99.90;;;;;;5033264;28;20452;-74
2024/04/06 09:09:59;;;;;;;1.90;0.32;;;20.40;99.90;;;;;;5043684;28;20060;-74
2024/04/06 09:12:25;;;;;;;3.00;0.50;;;20.50;99.90;;;;;;5045353;28;20047;-75
2024/04/06 09:14:51;;;;;;;4.00;0.40;;;20.50;99.90;;;;;;5042667;28;20119;-74
2024/04/06 09:17:19;;;;;;;3.53;0.55;;;20.40;99.90;;;;;;5044976;28;20524;-74
2024/04/06 09:19:45;;;;;;;1.55;0.45;;;20.50;99.90;;;;;;5041294;28;20035;-73
2024/04/06 09:22:11;;;;;;;4.95;0.65;;;20.60;99.90;;;;;;5043635;28;20033;-75
2024/04/06 09:24:39;;;;;;;2.38;0.40;;;20.70;99.90;;;;;;5038485;28;20904;-74
2024/04/06 09:27:06;;;;;;;3.03;0.68;;;20.70;99.90;;;;;;5039828;28;20044;-74
2024/04/06 09:29:32;;;;;;;2.10;0.70;;;20.70;99.90;;;;;;5044136;28;20119;-74
2024/04/06 09:32:01;;;;;;;4.88;0.52;;;20.70;99.90;;;;;;5045096;28;20127;-71
2024/04/06 09:34:27;;;;;;;1.38;0.50;;;20.80;99.90;;;;;;5040121;28;20112;-73
2024/04/06 09:37:01;;;;;;;4.63;0.85;;;20.70;99.90;;;;;;5044222;28;20132;-71
2024/04/06 09:39:29;;;;;;;3.72;0.57;;;20.80;99.90;;;;;;5034503;28;20383;-72
2024/04/06 09:41:56;;;;;;;4.15;0.43;;;20.90;99.90;;;;;;5038538;28;20032;-75
2024/04/06 09:44:23;;;;;;;4.07;1.48;;;20.90;99.90;;;;;;5032889;28;20122;-74
2024/04/06 09:46:49;;;;;;;2.22;0.50;;;20.90;99.90;;;;;;5043135;28;20037;-75
2024/04/06 09:49:15;;;;;;;1.50;0.50;;;20.90;99.90;;;;;;5044349;28;20056;-75
2024/04/06 09:51:41;;;;;;;3.38;0.30;;;20.90;99.90;;;;;;5044587;28;20521;-73
2024/04/06 09:54:07;;;;;;;2.90;0.98;;;21.00;99.90;;;;;;5042425;28;20049;-73
2024/04/06 09:56:33;;;;;;;5.38;0.60;;;21.00;99.90;;;;;;5043746;28;20029;-76
2024/04/06 09:58:58;;;;;;;0.50;0.20;;;21.00;99.90;;;;;;5042844;28;20037;-73
2024/04/06 10:01:27;;;;;;;1.48;0.45;;;21.00;99.90;;;;;;5039785;28;20069;-73
2024/04/06 10:03:52;;;;;;;2.33;0.40;;;21.20;99.90;;;;;;5039616;28;20048;-71
2024/04/06 10:06:21;;;;;;;3.60;0.40;;;21.20;99.90;;;;;;5032215;28;20042;-73
2024/04/06 10:08:51;;;;;;;1.25;0.43;;;21.20;99.90;;;;;;5035930;28;20082;-71
2024/04/06 10:11:21;;;;;;;1.95;0.30;;;21.30;99.90;;;;;;5046616;28;20492;-72
2024/04/06 10:13:57;;;;;;;2.42;0.25;;;21.30;99.90;;;;;;5042548;28;20029;-71
2024/04/06 10:16:25;;;;;;;1.90;0.30;;;21.30;99.90;;;;;;5047250;28;20134;-73
2024/04/06 10:18:51;;;;;;;0.82;0.30;;;21.30;99.90;;;;;;5041760;28;20052;-75
2024/04/06 10:21:19;;;;;;;1.92;0.60;;;21.30;99.90;;;;;;5047287;28;20115;-76
2024/04/06 10:23:46;;;;;;;2.22;0.70;;;21.40;99.90;;;;;;5041497;28;20033;-71
2024/04/06 10:26:16;;;;;;;3.80;0.40;;;21.50;99.90;;;;;;5040382;28;20121;-73
2024/04/06 10:28:43;;;;;;;1.35;0.40;;;21.50;99.90;;;;;;5042807;28;20076;-72
2024/04/06 10:31:09;;;;;;;1.55;0.30;;;21.60;99.90;;;;;;5046354;28;20033;-74
2024/04/06 10:33:38;;;;;;;3.05;0.40;;;21.70;99.90;;;;;;5046144;28;20029;-73
2024/04/06 10:36:11;;;;;;;3.00;0.52;;;21.80;99.90;;;;;;5045248;28;20494;-73
2024/04/06 10:38:40;;;;;;;3.53;0.40;;;21.90;99.90;;;;;;5029201;28;20132;-72
2024/04/06 10:41:06;;;;;;;1.65;0.52;;;22.00;99.90;;;;;;5047191;28;20162;-73
2024/04/06 10:43:35;;;;;;;2.85;0.60;;;22.00;99.90;;;;;;5041837;28;20494;-72
2024/04/06 10:46:00;;;;;;;3.40;0.38;;;22.00;99.90;;;;;;5037789;28;20111;-72
2024/04/06 10:48:26;;;;;;;2.92;0.40;;;22.10;99.90;;;;;;5047285;28;20433;-73
2024/04/06 10:50:52;;;;;;;2.53;0.30;;;22.20;99.90;;;;;;5040986;28;20056;-71
2024/04/06 10:53:18;;;;;;;0.90;0.30;;;22.30;99.90;;;;;;5040996;28;20040;-74
2024/04/06 10:55:46;;;;;;;0.82;0.20;;;22.30;99.90;;;;;;5033715;28;20459;-70
2024/04/06 10:58:11;;;;;;;1.27;0.30;;;22.40;99.90;;;;;;5035668;28;20032;-73
2024/04/06 11:00:40;;;;;;;4.85;0.88;;;22.30;99.90;;;;;;5047108;28;20426;-74
2024/04/06 11:03:07;;;;;;;2.42;0.70;;;22.30;99.90;;;;;;5040091;28;20056;-74
2024/04/06 11:05:35;;;;;;;1.48;0.30;;;22.20;99.90;;;;;;5029658;28;20402;-73
2024/04/06 11:08:05;;;;;;;0.73;0.20;;;22.20;99.90;;;;;;5012377;28;20029;-72
2024/04/06 11:10:31;;;;;;;0.80;0.17;;;22.30;99.70;;;;;;5026002;28;20524;-74
2024/04/06 11:12:58;;;;;;;4.18;0.50;;;22.30;99.60;;;;;;5024610;28;20037;-72
2024/04/06 11:15:25;;;;;;;1.67;0.35;;;22.30;99.90;;;;;;5023141;28;20112;-72
2024/04/06 11:17:53;;;;;;;1.05;0.52;;;22.30;99.70;;;;;;5025662;28;20052;-72
2024/04/06 11:20:18;;;;;;;3.50;0.38;;;22.40;99.70;;;;;;5023980;28;20094;-72
2024/04/06 11:22:45;;;;;;;1.17;0.30;;;22.50;99.90;;;;;;5027070;28;20045;-72
2024/04/06 11:25:19;;;;;;;5.20;0.82;;;22.50;99.70;;;;;;5017716;28;20049;-72
2024/04/06 11:27:52;;;;;;;1.33;0.28;;;22.60;99.80;;;;;;5022953;28;20042;-70
2024/04/06 11:30:19;;;;;;;1.90;0.35;;;22.70;98.70;;;;;;5043975;28;20045;-72
2024/04/06 11:32:48;;;;;;;2.38;0.43;;;22.70;98.70;;;;;;5046689;28;20045;-70
2024/04/06 11:35:14;;;;;;;0.80;0.30;;;22.80;99.40;;;;;;5047115;28;20044;-74
2024/04/06 11:37:40;;;;;;;0.57;0.10;;;22.80;98.30;;;;;;5041903;28;20044;-74
2024/04/06 11:40:07;;;;;;;2.47;0.20;;;22.80;97.40;;;;;;5039942;28;20087;-73
2024/04/06 11:42:33;;;;;;;0.40;0.20;;;22.80;97.90;;;;;;5046087;28;20032;-72
2024/04/06 11:44:59;;;;;;;1.33;0.57;;;22.80;97.50;;;;;;5037985;28;20103;-70
2024/04/06 11:47:26;;;;;;;6.25;0.73;;;22.80;98.00;;;;;;5042953;28;20037;-72
2024/04/06 11:49:51;;;;;;;0.75;0.30;;;22.80;97.90;;;;;;5041423;28;20027;-73
2024/04/06 11:52:17;;;;;;;2.67;0.15;;;22.80;97.80;;;;;;5047323;28;20029;-72
2024/04/06 11:54:42;;;;;;;0.88;0.25;;;22.90;98.30;;;;;;5043042;28;20040;-72
2024/04/06 11:57:09;;;;;;;4.22;0.60;;;22.90;98.40;;;;;;5045761;28;20424;-72
2024/04/06 11:59:34;;;;;;;1.63;0.15;;;22.90;98.20;;;;;;5042304;28;20123;-72
2024/04/06 12:02:00;;;;;;;4.65;0.28;;;22.90;98.30;;;;;;5033506;28;20645;-73
2024/04/06 12:04:26;;;;;;;2.25;0.20;;;22.80;98.20;;;;;;5038387;28;20041;-72
2024/04/06 12:06:52;;;;;;;0.80;0.30;;;22.90;97.60;;;;;;5039663;28;20033;-74
2024/04/06 12:09:19;;;;;;;0.93;0.30;;;22.80;98.00;;;;;;5037848;28;20033;-74
2024/04/06 12:11:44;;;;;;;1.58;0.52;;;22.90;97.70;;;;;;5041337;28;20037;-71
2024/04/06 12:14:10;;;;;;;1.42;0.10;;;23.00;97.70;;;;;;5043286;28;20142;-72
2024/04/06 12:16:36;;;;;;;1.65;0.45;;;23.00;98.20;;;;;;5045072;28;20068;-72
2024/04/06 12:19:02;;;;;;;1.65;0.52;;;23.10;98.10;;;;;;5041954;28;20124;-69
2024/04/06 12:21:28;;;;;;;3.42;0.30;;;23.20;98.30;;;;;;5047330;28;20033;-71
2024/04/06 12:23:54;;;;;;;1.38;0.10;;;23.20;98.30;;;;;;5044583;28;20037;-72
2024/04/06 12:26:20;;;;;;;3.35;1.52;;;23.40;97.70;;;;;;5033798;28;20029;-71
2024/04/06 12:28:45;;;;;;;2.53;0.65;;;23.40;98.10;;;;;;5040464;28;20025;-71
2024/04/06 12:31:11;;;;;;;2.72;0.28;;;23.60;97.80;;;;;;5045800;28;20044;-73
2024/04/06 12:33:37;;;;;;;2.67;0.20;;;23.60;98.00;;;;;;5044788;28;20128;-71
2024/04/06 12:36:05;;;;;;;0.57;0.25;;;23.60;98.20;;;;;;5045134;28;20036;-73
2024/04/06 12:38:30;;;;;;;7.32;0.50;;;23.60;97.70;;;;;;5044262;28;20036;-71
2024/04/06 12:40:56;;;;;;;0.93;0.20;;;23.60;97.50;;;;;;5046255;28;20035;-71
2024/04/06 12:43:22;;;;;;;0.68;0.10;;;23.70;96.70;;;;;;5037724;28;20033;-73